Hectorville, Vermont
Current Conditions -  °F | °C
As of 3:55 AM on Friday 24 Oct 2014 (Local Time) from KEFK Reporting Station
Drizzle Drizzle  
Wind Chill: 35°   Ceiling: 700
Heat Index: 41°   Visibility: 3mi
Dew Point: 41°   Wind: 10mph
Humidity: 97%   Direction: 360°N
Pressure: 29.8"   Gusts: NA
Location:  44.8557°N, 72.6016°W
Report Text: KEFK 240755Z AUTO 36009KT 3SM DZ BKN007 OVC010 05/05 A2980 RMK AO2 T00520048
Loading
Personal Weather Stations






























Interactive Weather Map
Tropical Storm Tracking
New forecast layout! Learn more

10-Day Weather Forecast

Advertisements
Track Severe Weather on mobile